createdAt,value
2019-03-26T00:00:38.842Z,88.80
2019-03-26T00:03:07.713Z,88.70
2019-03-26T00:05:38.188Z,88.70
2019-03-26T00:08:07.205Z,89.30
2019-03-26T00:10:36.422Z,88.10
2019-03-26T00:13:05.389Z,88.60
2019-03-26T00:15:34.404Z,88.60
2019-03-26T00:18:03.372Z,89.60
2019-03-26T00:20:32.224Z,88.00
2019-03-26T00:23:01.052Z,88.50
2019-03-26T00:25:29.936Z,88.70
2019-03-26T00:27:59.038Z,88.10
2019-03-26T00:30:28.078Z,87.90
2019-03-26T00:32:56.975Z,87.90
2019-03-26T00:35:25.943Z,88.10
2019-03-26T00:37:57.665Z,88.10
2019-03-26T00:40:26.591Z,88.20
2019-03-26T00:42:55.555Z,88.30
2019-03-26T00:45:24.549Z,88.10
2019-03-26T00:47:53.571Z,88.70
2019-03-26T00:50:22.848Z,87.70
2019-03-26T00:52:51.708Z,89.00
2019-03-26T00:55:22.915Z,88.40
2019-03-26T00:57:51.071Z,89.00
2019-03-26T01:00:29.211Z,88.80
2019-03-26T01:02:59.843Z,88.40
2019-03-26T01:05:28.736Z,88.00
2019-03-26T01:07:57.770Z,87.90
2019-03-26T01:10:27.361Z,87.10
2019-03-26T01:12:56.381Z,87.80
2019-03-26T01:15:25.456Z,87.70
2019-03-26T01:17:54.775Z,87.90
2019-03-26T01:20:23.959Z,87.70
2019-03-26T01:22:52.861Z,87.80
2019-03-26T01:25:21.773Z,88.10
2019-03-26T01:27:50.698Z,89.50
2019-03-26T01:30:19.746Z,88.60
2019-03-26T01:32:50.210Z,89.00
2019-03-26T01:35:19.063Z,90.00
2019-03-26T01:37:47.935Z,90.00
2019-03-26T01:40:16.842Z,90.20
2019-03-26T01:42:45.973Z,90.20
2019-03-26T01:45:15.004Z,90.20
2019-03-26T01:47:43.801Z,90.50
2019-03-26T01:50:12.685Z,90.10
2019-03-26T01:52:41.510Z,90.50
2019-03-26T01:55:10.545Z,89.90
2019-03-26T01:57:39.533Z,90.50
2019-03-26T02:00:08.599Z,90.20
2019-03-26T02:02:37.455Z,90.20
2019-03-26T02:05:06.818Z,90.20
2019-03-26T02:07:38.759Z,90.00
2019-03-26T02:10:09.321Z,90.20
2019-03-26T02:12:38.130Z,90.60
2019-03-26T02:15:08.477Z,90.50
2019-03-26T02:17:37.412Z,91.00
2019-03-26T02:20:06.812Z,90.70
2019-03-26T02:22:35.854Z,90.60
2019-03-26T02:25:05.062Z,90.80
2019-03-26T02:27:33.947Z,90.60
2019-03-26T02:30:03.033Z,90.30
2019-03-26T02:32:31.921Z,90.00
2019-03-26T02:35:16.315Z,89.40
2019-03-26T02:37:31.262Z,89.90
2019-03-26T02:40:00.690Z,89.70
2019-03-26T02:42:29.665Z,90.10
2019-03-26T02:44:58.821Z,89.70
2019-03-26T02:47:27.959Z,90.30
2019-03-26T02:49:56.849Z,90.20
2019-03-26T02:52:25.660Z,90.00
2019-03-26T02:54:54.479Z,90.20
2019-03-26T02:57:23.420Z,89.60
2019-03-26T02:59:52.264Z,90.00
2019-03-26T03:02:21.302Z,89.60
2019-03-26T03:04:50.378Z,89.70
2019-03-26T03:07:19.300Z,89.60
2019-03-26T03:09:48.236Z,89.80
2019-03-26T03:12:17.222Z,89.20
2019-03-26T03:14:46.187Z,90.00
2019-03-26T03:17:34.271Z,90.20
2019-03-26T03:20:03.720Z,89.60
2019-03-26T03:22:33.605Z,89.30
2019-03-26T03:25:02.611Z,89.70
2019-03-26T03:27:31.658Z,90.00
2019-03-26T03:30:00.665Z,90.20
2019-03-26T03:32:29.629Z,90.00
2019-03-26T03:34:58.493Z,90.20
2019-03-26T03:37:27.485Z,90.00
2019-03-26T03:39:56.369Z,90.50
2019-03-26T03:42:25.550Z,90.20
2019-03-26T03:44:54.519Z,90.10
2019-03-26T03:47:23.486Z,90.20
2019-03-26T03:49:52.364Z,90.00
2019-03-26T03:52:21.465Z,90.00
2019-03-26T03:54:50.541Z,89.70
2019-03-26T03:57:19.537Z,89.60
2019-03-26T03:59:48.433Z,90.00
2019-03-26T04:02:17.436Z,90.10
2019-03-26T04:04:46.271Z,90.30
2019-03-26T04:07:15.205Z,90.30
2019-03-26T04:09:44.086Z,90.40
2019-03-26T04:12:13.165Z,90.40
2019-03-26T04:14:45.408Z,90.30
2019-03-26T04:17:14.288Z,90.70
2019-03-26T04:19:43.268Z,90.40
2019-03-26T04:22:12.171Z,90.30
2019-03-26T04:24:41.229Z,90.00
2019-03-26T04:27:10.211Z,90.00
2019-03-26T04:29:42.382Z,89.70
2019-03-26T04:32:11.392Z,89.10
2019-03-26T04:34:59.657Z,88.20
2019-03-26T04:37:28.671Z,88.70
2019-03-26T04:39:57.584Z,88.70
2019-03-26T04:42:26.543Z,88.80
2019-03-26T04:44:55.584Z,89.20
2019-03-26T04:47:24.471Z,88.90
2019-03-26T04:49:53.433Z,87.70
2019-03-26T04:52:22.226Z,86.90
2019-03-26T04:54:51.091Z,86.90
2019-03-26T04:57:20.260Z,86.90
2019-03-26T04:59:49.170Z,87.10
2019-03-26T05:02:18.060Z,87.50
2019-03-26T05:04:46.885Z,87.40
2019-03-26T05:07:15.766Z,88.40
2019-03-26T05:09:44.920Z,88.20
2019-03-26T05:12:13.706Z,87.10
2019-03-26T05:14:42.689Z,86.80
2019-03-26T05:17:11.593Z,87.20
2019-03-26T05:19:40.694Z,87.00
2019-03-26T05:22:09.644Z,87.40
2019-03-26T05:24:38.563Z,88.00
2019-03-26T05:27:07.528Z,88.40
2019-03-26T05:29:36.357Z,88.50
2019-03-26T05:32:05.193Z,88.80
2019-03-26T05:34:33.994Z,90.00
2019-03-26T05:37:02.815Z,88.20
2019-03-26T05:39:31.651Z,88.40
2019-03-26T05:42:02.573Z,88.20
2019-03-26T05:44:31.547Z,88.70
2019-03-26T05:47:01.818Z,87.80
2019-03-26T05:49:30.853Z,88.40
2019-03-26T05:51:59.774Z,88.20
2019-03-26T05:54:28.645Z,88.00
2019-03-26T05:56:57.500Z,87.50
2019-03-26T05:59:26.448Z,88.60
2019-03-26T06:01:55.679Z,88.00
2019-03-26T06:04:24.888Z,87.40
2019-03-26T06:07:04.247Z,87.50
2019-03-26T06:09:43.885Z,87.10
2019-03-26T06:12:12.993Z,87.50
2019-03-26T06:14:41.773Z,86.20
2019-03-26T06:17:10.810Z,85.10
2019-03-26T06:19:39.644Z,84.30
2019-03-26T06:22:10.144Z,85.50
2019-03-26T06:24:39.042Z,85.80
2019-03-26T06:27:08.142Z,85.80
2019-03-26T06:29:36.944Z,85.80
2019-03-26T06:32:05.855Z,84.10
2019-03-26T06:34:34.716Z,84.10
2019-03-26T06:37:03.594Z,83.70
2019-03-26T06:39:32.512Z,82.10
2019-03-26T06:42:01.332Z,83.10
2019-03-26T06:44:30.235Z,82.60
2019-03-26T06:46:59.327Z,82.50
2019-03-26T06:49:28.374Z,83.10
2019-03-26T06:51:57.182Z,82.70
2019-03-26T06:54:27.198Z,82.90
2019-03-26T06:56:56.169Z,82.60
2019-03-26T06:59:25.339Z,82.80
2019-03-26T07:01:54.209Z,82.00
2019-03-26T07:04:23.045Z,82.50
2019-03-26T07:06:52.384Z,82.00
2019-03-26T07:09:22.926Z,82.10
2019-03-26T07:11:51.926Z,80.80
2019-03-26T07:14:20.772Z,79.70
2019-03-26T07:16:49.717Z,80.70
2019-03-26T07:19:18.835Z,81.10
2019-03-26T07:21:49.917Z,80.90
2019-03-26T07:24:18.225Z,80.90
2019-03-26T07:26:47.098Z,81.70
2019-03-26T07:29:16.126Z,81.80
2019-03-26T07:31:45.214Z,78.00
2019-03-26T07:34:14.250Z,76.60
2019-03-26T07:36:43.069Z,76.40
2019-03-26T07:39:11.915Z,76.70
2019-03-26T07:41:43.590Z,75.30
2019-03-26T07:44:12.379Z,74.10
2019-03-26T07:46:41.393Z,76.30
2019-03-26T07:49:10.879Z,76.00
2019-03-26T07:51:39.845Z,77.60
2019-03-26T07:54:09.116Z,77.20
2019-03-26T07:56:38.078Z,77.00
2019-03-26T07:59:06.922Z,76.80
2019-03-26T08:01:35.815Z,77.30
2019-03-26T08:04:04.942Z,77.00
2019-03-26T08:06:33.745Z,78.20
2019-03-26T08:09:02.618Z,78.20
2019-03-26T08:11:31.686Z,78.70
2019-03-26T08:14:00.650Z,78.00
2019-03-26T08:16:29.528Z,77.90
2019-03-26T08:18:58.544Z,78.20
2019-03-26T08:21:27.372Z,78.00
2019-03-26T08:23:57.824Z,77.30
2019-03-26T08:26:26.721Z,76.60
2019-03-26T08:28:55.624Z,76.30
2019-03-26T08:31:24.597Z,76.40
2019-03-26T08:33:53.544Z,73.60
2019-03-26T08:36:22.564Z,71.00
2019-03-26T08:38:51.514Z,73.30
2019-03-26T08:41:20.403Z,75.00
2019-03-26T08:43:49.339Z,70.40
2019-03-26T08:46:18.148Z,69.90
2019-03-26T08:48:48.751Z,66.40
2019-03-26T08:51:18.549Z,63.90
2019-03-26T08:53:47.475Z,62.30
2019-03-26T08:56:16.419Z,60.10
2019-03-26T08:58:45.304Z,59.30
2019-03-26T09:01:14.171Z,58.50
2019-03-26T09:03:43.263Z,57.50
2019-03-26T09:06:12.318Z,56.70
2019-03-26T09:08:41.346Z,56.30
2019-03-26T09:11:10.138Z,58.60
2019-03-26T09:13:38.962Z,57.80
2019-03-26T09:16:08.139Z,55.70
2019-03-26T09:18:37.021Z,55.40
2019-03-26T09:21:05.953Z,56.50
2019-03-26T09:23:34.885Z,53.60
2019-03-26T09:26:03.998Z,56.20
2019-03-26T09:28:32.890Z,52.30
2019-03-26T09:31:04.663Z,52.20
2019-03-26T09:33:33.779Z,52.30
2019-03-26T09:36:02.932Z,53.20
2019-03-26T09:38:38.852Z,51.80
2019-03-26T09:41:02.893Z,52.90
2019-03-26T09:43:31.826Z,52.80
2019-03-26T09:46:01.107Z,52.70
2019-03-26T09:48:32.428Z,52.30
2019-03-26T09:51:01.462Z,53.80
2019-03-26T09:53:30.543Z,52.80
2019-03-26T09:55:59.460Z,52.70
2019-03-26T09:58:28.409Z,51.40
2019-03-26T10:00:57.242Z,52.40
2019-03-26T10:03:26.267Z,54.90
2019-03-26T10:05:55.106Z,55.40
2019-03-26T10:08:24.044Z,55.00
2019-03-26T10:10:53.111Z,53.80
2019-03-26T10:13:22.258Z,53.50
2019-03-26T10:15:51.294Z,53.60
2019-03-26T10:18:23.239Z,53.00
2019-03-26T10:20:52.150Z,49.80
2019-03-26T10:23:20.989Z,50.40
2019-03-26T10:25:49.826Z,51.60
2019-03-26T10:28:18.824Z,50.10
2019-03-26T10:30:47.792Z,50.00
2019-03-26T10:33:16.988Z,48.40
2019-03-26T10:35:45.797Z,50.10
2019-03-26T10:38:14.752Z,48.00
2019-03-26T10:40:43.596Z,47.30
2019-03-26T10:43:12.451Z,45.20
2019-03-26T10:45:41.469Z,46.70
2019-03-26T10:48:10.472Z,48.90
2019-03-26T10:50:39.381Z,46.70
2019-03-26T10:53:08.272Z,46.20
2019-03-26T10:55:37.222Z,43.90
2019-03-26T10:58:06.366Z,44.30
2019-03-26T11:00:35.281Z,44.80
2019-03-26T11:03:04.717Z,45.30
2019-03-26T11:05:33.573Z,44.60
2019-03-26T11:08:04.929Z,45.10
2019-03-26T11:10:33.871Z,46.30
2019-03-26T11:13:02.789Z,47.60
2019-03-26T11:15:31.739Z,46.90
2019-03-26T11:18:00.922Z,48.40
2019-03-26T11:20:31.360Z,48.60
2019-03-26T11:23:00.385Z,47.50
2019-03-26T11:25:29.331Z,48.20
2019-03-26T11:27:58.281Z,49.30
2019-03-26T11:30:27.307Z,49.00
2019-03-26T11:32:56.511Z,50.30
2019-03-26T11:35:30.481Z,49.70
2019-03-26T11:37:59.555Z,49.60
2019-03-26T11:40:28.518Z,48.00
2019-03-26T11:42:57.317Z,46.30
2019-03-26T11:45:26.316Z,43.90
2019-03-26T11:47:55.227Z,45.70
2019-03-26T11:50:24.260Z,41.90
2019-03-26T11:52:53.201Z,41.60
2019-03-26T11:55:22.267Z,42.70
2019-03-26T11:57:51.366Z,44.50
2019-03-26T12:00:21.893Z,44.10
2019-03-26T12:02:50.895Z,45.30
2019-03-26T12:05:19.702Z,44.40
2019-03-26T12:07:48.523Z,44.50
2019-03-26T12:10:17.478Z,46.60
2019-03-26T12:12:46.369Z,47.10
2019-03-26T12:15:15.226Z,46.00
2019-03-26T12:17:44.275Z,46.50
2019-03-26T12:20:13.492Z,46.40
2019-03-26T12:22:42.349Z,47.60
2019-03-26T12:25:11.444Z,49.00
2019-03-26T12:27:40.502Z,45.20
2019-03-26T12:30:11.108Z,43.00
2019-03-26T12:32:41.109Z,43.50
2019-03-26T12:35:13.739Z,42.00
2019-03-26T12:37:43.040Z,41.80
2019-03-26T12:40:12.229Z,40.20
2019-03-26T12:42:41.232Z,40.30
2019-03-26T12:45:10.100Z,41.60
2019-03-26T12:47:38.991Z,41.80
2019-03-26T12:50:07.935Z,42.80
2019-03-26T12:52:36.924Z,44.40
2019-03-26T12:55:06.456Z,45.60
2019-03-26T12:57:35.361Z,44.10
2019-03-26T13:00:08.377Z,43.50
2019-03-26T13:02:37.439Z,44.30
2019-03-26T13:05:07.911Z,44.40
2019-03-26T13:07:36.769Z,45.00
2019-03-26T13:10:14.019Z,45.40
2019-03-26T13:12:42.214Z,42.40
2019-03-26T13:15:11.037Z,40.40
2019-03-26T13:17:40.044Z,40.90
2019-03-26T13:20:08.933Z,39.30
2019-03-26T13:22:38.005Z,39.50
2019-03-26T13:25:07.149Z,39.20
2019-03-26T13:27:36.265Z,38.80
2019-03-26T13:30:08.506Z,39.80
2019-03-26T13:32:37.432Z,40.80
2019-03-26T13:35:07.429Z,40.30
2019-03-26T13:37:36.446Z,40.70
2019-03-26T13:40:06.262Z,41.20
2019-03-26T13:42:35.128Z,42.70
2019-03-26T13:45:05.568Z,43.80
2019-03-26T13:47:34.817Z,43.00
2019-03-26T13:50:06.296Z,44.40
2019-03-26T13:52:35.147Z,44.40
2019-03-26T13:55:05.304Z,45.20
2019-03-26T13:57:34.096Z,44.80
2019-03-26T14:00:03.396Z,45.20
2019-03-26T14:02:32.201Z,44.80
2019-03-26T14:05:01.129Z,44.70
2019-03-26T14:07:30.077Z,45.40
2019-03-26T14:09:58.879Z,45.10
2019-03-26T14:12:27.713Z,45.90
2019-03-26T14:14:56.803Z,47.00
2019-03-26T14:17:25.799Z,45.00
2019-03-26T14:19:54.688Z,42.90
2019-03-26T14:22:23.488Z,41.90
2019-03-26T14:24:52.392Z,41.60
2019-03-26T14:27:21.194Z,40.40
2019-03-26T14:29:50.184Z,41.30
2019-03-26T14:32:19.242Z,41.50
2019-03-26T14:34:51.554Z,42.20
2019-03-26T14:37:18.737Z,44.30
2019-03-26T14:39:47.607Z,42.60
2019-03-26T14:42:16.695Z,43.20
2019-03-26T14:44:45.767Z,43.90
2019-03-26T14:47:14.666Z,44.10
2019-03-26T14:49:43.606Z,44.50
2019-03-26T14:52:13.039Z,44.60
2019-03-26T14:54:44.906Z,45.50
2019-03-26T14:57:14.013Z,46.00
2019-03-26T14:59:42.972Z,45.20
2019-03-26T15:02:13.599Z,44.50
2019-03-26T15:04:42.711Z,46.20
2019-03-26T15:07:11.546Z,45.90
2019-03-26T15:09:40.454Z,46.10
2019-03-26T15:12:09.329Z,46.20
2019-03-26T15:14:38.583Z,46.30
2019-03-26T15:17:07.608Z,47.40
2019-03-26T15:19:37.111Z,46.60
2019-03-26T15:22:06.390Z,45.60
2019-03-26T15:24:35.369Z,47.20
2019-03-26T15:27:04.312Z,45.60
2019-03-26T15:29:33.340Z,47.40
2019-03-26T15:32:02.373Z,46.60
2019-03-26T15:34:36.229Z,46.70
2019-03-26T15:37:01.955Z,47.40
2019-03-26T15:39:30.973Z,47.70
2019-03-26T15:42:00.028Z,48.20
2019-03-26T15:44:29.147Z,47.90
2019-03-26T15:46:59.548Z,47.90
2019-03-26T15:49:28.667Z,47.70
2019-03-26T15:51:57.871Z,48.10
2019-03-26T15:54:26.996Z,48.40
2019-03-26T15:56:55.965Z,47.50
2019-03-26T15:59:24.916Z,47.50
2019-03-26T16:01:54.152Z,48.70
2019-03-26T16:04:23.326Z,49.00
2019-03-26T16:06:52.413Z,49.40
2019-03-26T16:09:24.297Z,47.90
2019-03-26T16:11:53.420Z,47.10
2019-03-26T16:14:22.831Z,49.60
2019-03-26T16:16:53.409Z,49.80
2019-03-26T16:19:32.239Z,49.60
2019-03-26T16:21:54.915Z,48.80
2019-03-26T16:24:23.996Z,50.10
2019-03-26T16:26:53.216Z,49.30
2019-03-26T16:29:22.179Z,48.70
2019-03-26T16:31:51.221Z,49.00
2019-03-26T16:34:21.898Z,49.40
2019-03-26T16:36:59.349Z,51.60
2019-03-26T16:39:21.670Z,50.50
2019-03-26T16:41:50.712Z,51.60
2019-03-26T16:44:19.859Z,51.80
2019-03-26T16:46:48.945Z,51.60
2019-03-26T16:49:17.859Z,51.40
2019-03-26T16:51:47.467Z,50.10
2019-03-26T16:54:16.509Z,50.00
2019-03-26T16:56:45.899Z,49.10
2019-03-26T16:59:14.932Z,49.30
2019-03-26T17:01:44.162Z,49.40
2019-03-26T17:04:13.214Z,50.10
2019-03-26T17:06:42.282Z,52.30
2019-03-26T17:09:11.317Z,50.70
2019-03-26T17:11:40.365Z,51.60
2019-03-26T17:14:09.542Z,50.50
2019-03-26T17:16:38.674Z,49.80
2019-03-26T17:19:07.783Z,50.00
2019-03-26T17:21:36.935Z,51.80
2019-03-26T17:24:06.077Z,52.00
2019-03-26T17:26:35.231Z,51.30
2019-03-26T17:29:04.351Z,51.20
2019-03-26T17:31:33.476Z,51.30
2019-03-26T17:34:02.636Z,50.50
2019-03-26T17:36:33.401Z,50.70
2019-03-26T17:39:02.634Z,51.60
2019-03-26T17:41:31.606Z,51.60
2019-03-26T17:44:00.880Z,50.60
2019-03-26T17:46:30.136Z,49.40
2019-03-26T17:48:59.166Z,50.80
2019-03-26T17:51:40.987Z,52.40
2019-03-26T17:57:22.060Z,52.50
2019-03-26T17:59:51.228Z,53.30
2019-03-26T18:02:20.971Z,55.20
2019-03-26T18:04:50.113Z,54.50
2019-03-26T18:07:19.092Z,52.70
2019-03-26T18:09:47.936Z,52.60
2019-03-26T18:12:29.902Z,52.60
2019-03-26T18:14:47.652Z,52.50
2019-03-26T18:17:17.184Z,53.20
2019-03-26T18:19:46.530Z,53.10
2019-03-26T18:22:15.998Z,53.70
2019-03-26T18:24:45.116Z,53.90
2019-03-26T18:27:14.436Z,55.00
2019-03-26T18:29:43.751Z,53.60
2019-03-26T18:32:12.871Z,52.50
2019-03-26T18:34:43.443Z,53.60
2019-03-26T18:37:12.499Z,53.10
2019-03-26T18:39:41.434Z,52.90
2019-03-26T18:42:10.657Z,53.90
2019-03-26T18:44:39.754Z,54.50
2019-03-26T18:47:09.102Z,52.80
2019-03-26T18:49:38.223Z,53.00
2019-03-26T18:52:07.403Z,51.90
2019-03-26T18:54:37.618Z,53.00
2019-03-26T18:57:06.641Z,53.50
2019-03-26T18:59:38.577Z,54.40
2019-03-26T19:02:07.793Z,56.20
2019-03-26T19:04:36.798Z,57.20
2019-03-26T19:07:06.033Z,57.20
2019-03-26T19:09:38.489Z,57.10
2019-03-26T19:12:07.437Z,57.50
2019-03-26T19:14:36.569Z,56.40
2019-03-26T19:17:05.699Z,56.90
2019-03-26T19:19:37.843Z,56.40
2019-03-26T19:22:06.994Z,58.00
2019-03-26T19:24:39.125Z,60.00
2019-03-26T19:27:11.385Z,60.70
2019-03-26T19:29:40.656Z,62.10
2019-03-26T19:32:09.890Z,62.10
2019-03-26T19:34:39.124Z,61.20
2019-03-26T19:37:08.366Z,60.00
2019-03-26T19:39:37.669Z,59.60
2019-03-26T19:42:06.776Z,61.20
2019-03-26T19:44:36.118Z,60.70
2019-03-26T19:47:05.152Z,62.80
2019-03-26T19:49:34.359Z,60.70
2019-03-26T19:55:07.674Z,62.60
2019-03-26T19:57:38.689Z,63.70
2019-03-26T20:00:10.869Z,64.60
2019-03-26T20:02:40.173Z,64.10
2019-03-26T20:05:09.384Z,65.30
2019-03-26T20:07:38.800Z,66.30
2019-03-26T20:10:08.339Z,66.60
2019-03-26T20:12:39.295Z,63.90
2019-03-26T20:15:09.068Z,62.50
2019-03-26T20:17:38.442Z,61.10
2019-03-26T20:20:07.662Z,63.90
2019-03-26T20:22:40.256Z,61.40
2019-03-26T20:25:09.931Z,63.20
2019-03-26T20:27:39.194Z,61.90
2019-03-26T20:30:08.279Z,61.20
2019-03-26T20:32:37.472Z,62.30
2019-03-26T20:35:09.471Z,62.90
2019-03-26T20:37:43.907Z,63.80
2019-03-26T20:40:14.201Z,62.00
2019-03-26T20:42:43.322Z,61.40
2019-03-26T20:45:14.345Z,62.40
2019-03-26T20:47:43.128Z,65.90
2019-03-26T20:50:13.761Z,66.80
2019-03-26T20:52:44.698Z,65.50
2019-03-26T20:55:13.878Z,66.80
2019-03-26T20:57:43.087Z,66.60
2019-03-26T21:00:13.024Z,66.00
2019-03-26T21:02:42.234Z,68.00
2019-03-26T21:05:11.400Z,68.30
2019-03-26T21:07:40.462Z,68.50
2019-03-26T21:10:09.973Z,68.90
2019-03-26T21:12:39.051Z,67.00
2019-03-26T21:15:08.985Z,68.40
2019-03-26T21:17:38.371Z,67.00
2019-03-26T21:20:09.240Z,67.60
2019-03-26T21:22:38.440Z,67.70
2019-03-26T21:25:08.742Z,68.50
2019-03-26T21:27:37.768Z,68.80
2019-03-26T21:30:15.712Z,69.40
2019-03-26T21:32:44.724Z,69.70
2019-03-26T21:35:14.347Z,70.30
2019-03-26T21:37:43.570Z,70.90
2019-03-26T21:40:14.130Z,71.60
2019-03-26T21:42:42.961Z,71.70
2019-03-26T21:45:12.202Z,71.00
2019-03-26T21:47:41.141Z,71.10
2019-03-26T21:50:10.126Z,72.30
2019-03-26T21:52:39.173Z,72.90
2019-03-26T21:55:09.023Z,73.50
2019-03-26T21:57:37.950Z,72.60
2019-03-26T22:00:08.523Z,73.40
2019-03-26T22:02:37.535Z,73.10
2019-03-26T22:05:09.414Z,71.30
2019-03-26T22:07:38.287Z,72.10
2019-03-26T22:10:07.193Z,71.50
2019-03-26T22:12:36.024Z,71.20
2019-03-26T22:15:09.792Z,70.90
2019-03-26T22:17:38.920Z,72.20
2019-03-26T22:20:07.926Z,71.40
2019-03-26T22:22:36.787Z,72.40
2019-03-26T22:25:08.107Z,71.50
2019-03-26T22:27:37.088Z,71.70
2019-03-26T22:30:09.899Z,72.50
2019-03-26T22:32:38.900Z,71.70
2019-03-26T22:35:08.316Z,72.20
2019-03-26T22:37:37.254Z,73.00
2019-03-26T22:40:09.030Z,73.50
2019-03-26T22:42:37.873Z,73.00
2019-03-26T22:45:10.119Z,73.30
2019-03-26T22:47:39.543Z,73.40
2019-03-26T22:50:08.550Z,75.00
2019-03-26T22:52:37.555Z,73.10
2019-03-26T22:55:09.343Z,73.40
2019-03-26T22:57:38.427Z,74.00
2019-03-26T23:00:13.450Z,75.00
2019-03-26T23:02:42.476Z,74.10
2019-03-26T23:05:11.451Z,73.40
2019-03-26T23:07:40.556Z,71.90
2019-03-26T23:10:09.615Z,71.30
2019-03-26T23:12:38.507Z,73.00
2019-03-26T23:15:24.332Z,73.30
2019-03-26T23:17:53.249Z,74.60
2019-03-26T23:20:22.119Z,72.90
2019-03-26T23:22:50.977Z,73.30
2019-03-26T23:25:19.869Z,74.20
2019-03-26T23:27:48.710Z,75.20
2019-03-26T23:30:17.776Z,74.20
2019-03-26T23:32:46.824Z,74.10
2019-03-26T23:35:16.050Z,74.10
2019-03-26T23:37:44.980Z,74.30
2019-03-26T23:40:13.843Z,75.30
2019-03-26T23:42:42.850Z,74.30
2019-03-26T23:45:11.845Z,75.10
2019-03-26T23:47:40.777Z,75.50
2019-03-26T23:50:09.856Z,76.30
2019-03-26T23:52:38.962Z,76.00
2019-03-26T23:55:08.323Z,75.30
2019-03-26T23:57:37.756Z,75.80
